Sobolevo, Russia
Current Conditions -  °F | °C
As of 5:30 PM on Tuesday 27 Jan 2015 (Local Time) from UHPP Reporting Station
Clear Clear  
Wind Chill: 12°   Ceiling: Unl
Heat Index: 12°   Visibility: 6mi
Dew Point: -8°   Wind: 0mph
Humidity: 41%   Direction: NA
Pressure: 30.39"   Gusts: NA
Location:  54.27°N, 155.92°E
Report Text: UHPP 270530Z 00000MPS 9999 NSC M11/M22 Q1029 NOSIG RMKQFE768/1024 SC070
Loading
Personal Weather Stations






























Interactive Weather Map New forecast layout! Learn more

10-Day Weather Forecast

Advertisements
Track Severe Weather on mobile